Time;durP1;ratioP1;P1;durP2;ratioP2;P2;SDS_P1;SDS_P2;PMS_P1;PMS_P2;Temp;Humidity;BMP_temperature;BMP_pressure;BME280_temperature;BME280_humidity;BME280_pressure;Samples;Min_cycle;Max_cycle;Signal;HPM_P1;HPM_P2
2021/07/24 00:00:23;;;;;;;1999.90;999.90;;;;;;;16.52;39.30;101021.06;4802492;29;100337;-77
2021/07/24 00:02:50;;;;;;;1999.90;999.90;;;;;;;16.49;39.53;101013.00;4789239;29;100720;-77
2021/07/24 00:05:19;;;;;;;1999.90;999.90;;;;;;;16.49;39.37;101013.00;4790539;29;97876;-77
2021/07/24 00:07:47;;;;;;;1999.90;999.90;;;;;;;16.47;39.19;101009.44;4803446;29;98832;-78
2021/07/24 00:10:16;;;;;;;1999.90;999.90;;;;;;;16.43;39.29;101007.63;4809230;29;99238;-76
2021/07/24 00:12:43;;;;;;;1999.90;999.90;;;;;;;16.42;39.34;101012.09;4779370;29;97539;-78
2021/07/24 00:15:12;;;;;;;1999.90;999.90;;;;;;;16.40;39.34;101007.59;4801669;29;97151;-77
2021/07/24 00:17:40;;;;;;;1999.90;999.90;;;;;;;16.37;39.79;101004.91;4803345;29;100471;-77
2021/07/24 00:20:09;;;;;;;1999.90;999.90;;;;;;;16.36;39.61;101005.84;4802361;29;100809;-78
2021/07/24 00:22:37;;;;;;;1999.90;999.90;;;;;;;16.36;39.76;101012.06;4787459;29;99074;-77
2021/07/24 00:25:05;;;;;;;1999.90;999.90;;;;;;;16.36;39.81;101009.38;4804495;29;97179;-77
2021/07/24 00:27:34;;;;;;;1999.90;999.90;;;;;;;16.32;39.66;100999.56;4817912;29;98771;-77
2021/07/24 00:30:02;;;;;;;1999.90;999.90;;;;;;;16.29;39.59;100996.84;4802548;29;99048;-77
2021/07/24 00:32:31;;;;;;;1999.90;999.90;;;;;;;16.28;39.75;100996.84;4787777;29;97300;-77
2021/07/24 00:35:00;;;;;;;1999.90;999.90;;;;;;;16.26;39.57;101001.31;4805847;29;97945;-78
2021/07/24 00:37:28;;;;;;;1999.90;999.90;;;;;;;16.21;39.89;101003.13;4804637;29;99259;-77
2021/07/24 00:39:55;;;;;;;1999.90;999.90;;;;;;;16.07;39.87;101001.28;4804101;29;97750;-77
2021/07/24 00:42:24;;;;;;;1999.90;999.90;;;;;;;16.04;40.09;100998.63;4803985;29;98019;-76
2021/07/24 00:44:57;;;;;;;1999.90;999.90;;;;;;;16.03;40.44;101002.19;4804857;29;97421;-77
2021/07/24 00:47:27;;;;;;;1999.90;999.90;;;;;;;16.03;40.24;100994.13;4804013;29;98095;-77
2021/07/24 00:50:10;;;;;;;1999.90;999.90;;;;;;;16.02;40.43;100986.97;4803413;29;99091;-76
2021/07/24 00:52:40;;;;;;;1999.90;999.90;;;;;;;16.01;40.67;100984.28;4793398;29;98640;-78
2021/07/24 00:55:10;;;;;;;1999.90;999.90;;;;;;;15.99;40.75;100986.94;4803978;29;97010;-77
2021/07/24 00:57:39;;;;;;;1999.90;999.90;;;;;;;15.99;40.65;100994.09;4804513;29;96846;-77
2021/07/24 01:00:10;;;;;;;1999.90;999.90;;;;;;;15.95;40.56;100990.50;4789162;29;99290;-77
2021/07/24 01:02:38;;;;;;;1999.90;999.90;;;;;;;15.95;40.65;100987.81;4802955;29;97369;-78
2021/07/24 01:05:08;;;;;;;1999.90;999.90;;;;;;;15.93;40.66;100991.38;4802557;29;97310;-77
2021/07/24 01:07:39;;;;;;;1999.90;999.90;;;;;;;15.92;40.65;100987.78;4802164;29;99140;-76
2021/07/24 01:10:08;;;;;;;1999.90;999.90;;;;;;;15.90;41.00;100991.38;4804785;29;99810;-77
2021/07/24 01:12:51;;;;;;;1999.90;999.90;;;;;;;15.87;40.78;100994.03;4802741;29;97906;-76
2021/07/24 01:15:20;;;;;;;1999.90;999.90;;;;;;;15.86;41.03;100990.50;4804220;29;99827;-77
2021/07/24 01:17:48;;;;;;;1999.90;999.90;;;;;;;15.84;40.66;100988.69;4803448;29;97705;-76
2021/07/24 01:20:18;;;;;;;1999.90;999.90;;;;;;;15.80;41.26;100984.19;4802999;29;99545;-76
2021/07/24 01:22:49;;;;;;;1999.90;999.90;;;;;;;15.78;41.07;100976.13;4818084;29;96855;-76
2021/07/24 01:25:17;;;;;;;1999.90;999.90;;;;;;;15.76;40.95;100979.69;4803246;29;98310;-76
2021/07/24 01:27:46;;;;;;;1999.90;999.90;;;;;;;15.73;41.09;100980.59;4802369;29;97142;-77
2021/07/24 01:30:14;;;;;;;1999.90;999.90;;;;;;;15.72;41.29;100977.91;4805401;29;97326;-77
2021/07/24 01:32:44;;;;;;;1999.90;999.90;;;;;;;15.69;41.13;100981.47;4792679;29;99486;-78
2021/07/24 01:35:13;;;;;;;1999.90;999.90;;;;;;;15.70;41.56;100977.03;4804090;29;97743;-78
2021/07/24 01:37:41;;;;;;;1999.90;999.90;;;;;;;15.69;41.37;100970.75;4802960;29;99158;-77
2021/07/24 01:40:12;;;;;;;1999.90;999.90;;;;;;;15.65;41.25;100965.38;4786455;29;99673;-77
2021/07/24 01:42:40;;;;;;;1999.90;999.90;;;;;;;15.62;41.52;100968.03;4785496;29;97175;-77
2021/07/24 01:45:10;;;;;;;1999.90;999.90;;;;;;;15.61;41.44;100963.56;4803693;29;97168;-77
2021/07/24 01:47:38;;;;;;;1999.90;999.90;;;;;;;15.59;41.46;100960.91;4804269;29;98821;-77
2021/07/24 01:52:59;;;;;;;1999.90;999.90;;;;;;;15.56;41.85;100955.50;4818753;29;97320;-77
2021/07/24 01:55:32;;;;;;;1999.90;999.90;;;;;;;15.55;41.98;100953.72;4801329;29;97691;-77
2021/07/24 01:58:12;;;;;;;1999.90;999.90;;;;;;;15.53;42.04;100942.09;4786604;29;98412;-76
2021/07/24 02:00:48;;;;;;;1999.90;999.90;;;;;;;15.49;42.29;100945.63;4804447;29;99538;-77
2021/07/24 02:03:25;;;;;;;1999.90;999.90;;;;;;;15.48;42.25;100946.53;4794025;29;97155;-77
2021/07/24 02:06:04;;;;;;;1999.90;999.90;;;;;;;15.46;42.14;100937.59;4790288;29;97775;-77
2021/07/24 02:08:36;;;;;;;1999.90;999.90;;;;;;;15.45;42.18;100929.56;4785214;29;100875;-76
2021/07/24 02:11:06;;;;;;;1999.90;999.90;;;;;;;15.43;42.50;100929.50;4801283;29;99146;-76
2021/07/24 02:13:34;;;;;;;1999.90;999.90;;;;;;;15.42;42.29;100930.41;4803584;29;96995;-77
2021/07/24 02:16:04;;;;;;;1999.90;999.90;;;;;;;15.41;42.62;100928.59;4795930;29;97647;-77
2021/07/24 02:18:32;;;;;;;1999.90;999.90;;;;;;;15.40;42.65;100929.53;4804759;29;98169;-76
2021/07/24 02:21:15;;;;;;;1999.90;999.90;;;;;;;15.39;42.79;100921.47;4787367;29;99438;-76
2021/07/24 02:23:44;;;;;;;1999.90;999.90;;;;;;;15.37;42.87;100921.47;4804536;29;96969;-77
2021/07/24 02:26:14;;;;;;;1999.90;999.90;;;;;;;15.37;42.92;100925.94;4803236;29;97360;-76
2021/07/24 02:28:43;;;;;;;1999.90;999.90;;;;;;;15.34;42.67;100924.13;4794514;29;98242;-76
2021/07/24 02:31:12;;;;;;;1999.90;999.90;;;;;;;15.32;42.85;100925.91;4776886;29;99629;-77
2021/07/24 02:33:40;;;;;;;1999.90;999.90;;;;;;;15.29;42.83;100917.84;4788184;29;97737;-78
2021/07/24 02:36:13;;;;;;;1999.90;999.90;;;;;;;15.29;42.88;100909.81;4790927;29;97264;-77
2021/07/24 02:38:40;;;;;;;1999.90;999.90;;;;;;;15.28;43.01;100904.41;4803138;29;100761;-77
2021/07/24 02:41:08;;;;;;;1999.90;999.90;;;;;;;15.28;43.04;100899.97;4817208;29;97920;-77
2021/07/24 02:43:38;;;;;;;1999.90;999.90;;;;;;;15.25;42.99;100899.03;4786145;29;97419;-77
2021/07/24 02:46:06;;;;;;;1999.90;999.90;;;;;;;15.22;43.27;100896.34;4806196;29;97225;-77
2021/07/24 02:48:35;;;;;;;1999.90;999.90;;;;;;;15.20;43.22;100892.75;4801205;29;98356;-76
2021/07/24 02:51:15;;;;;;;1999.90;999.90;;;;;;;15.19;43.20;100894.56;4802929;29;97762;-76
2021/07/24 02:53:45;;;;;;;1999.90;999.90;;;;;;;15.17;43.29;100886.47;4816937;29;96961;-76
2021/07/24 02:56:13;;;;;;;1999.90;999.90;;;;;;;15.17;43.48;100885.63;4817936;29;97056;-76
2021/07/24 02:58:42;;;;;;;1999.90;999.90;;;;;;;15.17;43.14;100887.38;4788515;29;100147;-76
2021/07/24 03:01:11;;;;;;;1999.90;999.90;;;;;;;15.14;43.11;100874.84;4793199;29;100746;-76
2021/07/24 03:03:39;;;;;;;1999.90;999.90;;;;;;;15.10;43.12;100865.91;4813064;29;98094;-78
2021/07/24 03:06:06;;;;;;;1999.90;999.90;;;;;;;15.10;43.38;100873.06;4805648;29;97390;-78
2021/07/24 03:08:34;;;;;;;1999.90;999.90;;;;;;;15.03;43.67;100871.22;4787704;29;101379;-77
2021/07/24 03:11:02;;;;;;;1999.90;999.90;;;;;;;15.00;43.59;100871.22;4816612;29;99417;-77
2021/07/24 03:13:31;;;;;;;1999.90;999.90;;;;;;;14.98;43.79;100871.22;4787177;29;97093;-79
2021/07/24 03:16:03;;;;;;;1999.90;999.90;;;;;;;14.96;43.97;100870.31;4806772;29;97599;-78
2021/07/24 03:18:30;;;;;;;1999.90;999.90;;;;;;;14.96;43.80;100870.31;4808905;29;97879;-76
2021/07/24 03:20:58;;;;;;;1999.90;999.90;;;;;;;14.94;43.98;100868.50;4800197;29;99321;-76
2021/07/24 03:23:26;;;;;;;1999.90;999.90;;;;;;;14.89;44.01;100868.50;4799108;29;97620;-77
2021/07/24 03:25:54;;;;;;;1999.90;999.90;;;;;;;14.87;44.41;100864.91;4787736;29;98799;-76
2021/07/24 03:28:21;;;;;;;1999.90;999.90;;;;;;;14.85;44.38;100872.06;4801164;29;98209;-77
2021/07/24 03:30:50;;;;;;;1999.90;999.90;;;;;;;14.84;44.57;100866.69;4802885;29;98976;-76
2021/07/24 03:33:19;;;;;;;1999.90;999.90;;;;;;;14.81;44.33;100869.38;4798608;29;97855;-76
2021/07/24 03:35:46;;;;;;;1999.90;999.90;;;;;;;14.81;44.35;100870.25;4800577;29;97355;-76
2021/07/24 03:38:14;;;;;;;1999.90;999.90;;;;;;;14.80;44.47;100875.59;4799747;29;99379;-76
2021/07/24 03:40:43;;;;;;;1999.90;999.90;;;;;;;14.79;44.71;100881.84;4799346;29;98494;-76
2021/07/24 03:43:11;;;;;;;1999.90;999.90;;;;;;;14.77;44.78;100880.94;4801177;29;97419;-77
2021/07/24 03:45:39;;;;;;;1999.90;999.90;;;;;;;14.75;44.80;100883.63;4800153;29;97094;-77
2021/07/24 03:48:07;;;;;;;1999.90;999.90;;;;;;;14.74;44.96;100884.50;4813837;29;99078;-77
2021/07/24 03:50:36;;;;;;;1999.90;999.90;;;;;;;14.70;45.05;100882.69;4802878;29;98422;-77
2021/07/24 03:53:04;;;;;;;1999.90;999.90;;;;;;;14.70;44.84;100881.81;4803354;29;97455;-76
2021/07/24 03:55:34;;;;;;;1999.90;999.90;;;;;;;14.68;45.30;100881.78;4804206;29;97810;-77
2021/07/24 03:58:02;;;;;;;1999.90;999.90;;;;;;;14.67;45.26;100881.75;4802428;29;100398;-76
2021/07/24 04:00:34;;;;;;;1999.90;999.90;;;;;;;14.65;45.05;100880.84;4803144;29;97951;-77
2021/07/24 04:03:02;;;;;;;1999.90;999.90;;;;;;;14.64;45.32;100885.34;4801607;29;97818;-77
2021/07/24 04:05:34;;;;;;;1999.90;999.90;;;;;;;14.67;45.32;100884.44;4804832;29;98547;-76
2021/07/24 04:08:05;;;;;;;1999.90;999.90;;;;;;;14.68;45.55;100891.59;4817096;29;99065;-77
2021/07/24 04:10:34;;;;;;;1999.90;999.90;;;;;;;14.64;45.35;100892.47;4802509;29;98106;-76
2021/07/24 04:13:02;;;;;;;1999.90;999.90;;;;;;;14.59;45.68;100892.44;4788110;29;97811;-77
2021/07/24 04:15:30;;;;;;;1999.90;999.90;;;;;;;14.55;45.84;100897.72;4803716;29;97540;-76
2021/07/24 04:17:58;;;;;;;1999.90;999.90;;;;;;;14.52;45.58;100898.59;4803588;29;99927;-76
2021/07/24 04:20:26;;;;;;;1999.90;999.90;;;;;;;14.51;45.51;100890.56;4804377;29;98143;-77
2021/07/24 04:22:54;;;;;;;1999.90;999.90;;;;;;;14.49;45.58;100895.00;4803103;29;96967;-77
2021/07/24 04:25:23;;;;;;;1999.90;999.90;;;;;;;14.37;45.70;100902.97;4788856;29;98392;-77
2021/07/24 04:27:51;;;;;;;1999.90;999.90;;;;;;;14.28;45.80;100902.91;4803241;29;97768;-76
2021/07/24 04:30:19;;;;;;;1999.90;999.90;;;;;;;14.19;45.83;100908.19;4803646;29;99251;-76
2021/07/24 04:32:47;;;;;;;1999.90;999.90;;;;;;;14.03;46.11;100907.13;4779782;29;99155;-76
2021/07/24 04:35:14;;;;;;;1999.90;999.90;;;;;;;13.90;46.51;100906.13;4785708;29;97778;-77
2021/07/24 04:37:42;;;;;;;1999.90;999.90;;;;;;;13.84;46.33;100906.06;4775626;29;100887;-77
2021/07/24 04:40:11;;;;;;;1999.90;999.90;;;;;;;13.79;46.51;100907.78;4802680;29;97702;-76
2021/07/24 04:42:40;;;;;;;1999.90;999.90;;;;;;;13.67;46.81;100910.31;4804183;29;97841;-74
2021/07/24 04:45:09;;;;;;;1999.90;999.90;;;;;;;13.64;47.16;100907.59;4804406;29;99547;-74
2021/07/24 04:47:37;;;;;;;1999.90;999.90;;;;;;;13.69;47.09;100911.22;4791947;29;98325;-75
2021/07/24 04:50:06;;;;;;;1999.90;999.90;;;;;;;13.68;47.10;100914.78;4802342;29;99849;-75
2021/07/24 04:52:36;;;;;;;1999.90;999.90;;;;;;;13.61;47.11;100923.63;4817791;29;97347;-76
2021/07/24 04:55:05;;;;;;;1999.90;999.90;;;;;;;13.54;47.27;100923.53;4794461;29;99612;-76
2021/07/24 04:57:34;;;;;;;1999.90;999.90;;;;;;;13.50;47.53;100924.38;4792783;29;99349;-77
2021/07/24 05:00:06;;;;;;;1999.90;999.90;;;;;;;13.51;47.61;100934.19;4802658;29;98077;-76
2021/07/24 05:02:35;;;;;;;1999.90;999.90;;;;;;;13.49;47.69;100920.81;4801378;29;97676;-76
2021/07/24 05:05:04;;;;;;;1999.90;999.90;;;;;;;13.55;47.62;100920.88;4802929;29;99395;-76
2021/07/24 05:07:33;;;;;;;1999.90;999.90;;;;;;;13.65;47.67;100930.78;4800233;29;100653;-75
2021/07/24 05:10:07;;;;;;;1999.90;999.90;;;;;;;13.67;47.54;100925.47;4787225;29;99472;-76
2021/07/24 05:12:36;;;;;;;1999.90;999.90;;;;;;;13.63;47.54;100921.84;4803290;29;97796;-76
2021/07/24 05:15:07;;;;;;;1999.90;999.90;;;;;;;13.64;47.70;100922.75;4789558;29;97054;-76
2021/07/24 05:17:39;;;;;;;1999.90;999.90;;;;;;;13.61;47.74;100920.94;4804467;29;99133;-76
2021/07/24 05:20:07;;;;;;;1999.90;999.90;;;;;;;13.58;47.91;100922.69;4800901;29;99049;-76
2021/07/24 05:22:35;;;;;;;1999.90;999.90;;;;;;;13.60;48.07;100927.19;4786437;29;97802;-75
2021/07/24 05:25:03;;;;;;;1999.90;999.90;;;;;;;13.60;48.21;100932.53;4803726;29;97376;-76
2021/07/24 05:27:31;;;;;;;1999.90;999.90;;;;;;;13.62;48.07;100920.03;4777313;29;98022;-76
2021/07/24 05:29:59;;;;;;;1999.90;999.90;;;;;;;13.65;48.30;100920.09;4802627;29;100337;-76
2021/07/24 05:32:28;;;;;;;1999.90;999.90;;;;;;;13.74;48.01;100904.16;4787099;29;97880;-75
2021/07/24 05:34:56;;;;;;;1999.90;999.90;;;;;;;13.87;47.77;100906.09;4799498;29;98763;-75
2021/07/24 05:37:25;;;;;;;1999.90;999.90;;;;;;;14.00;47.81;100901.75;4800733;29;97712;-76
2021/07/24 05:39:52;;;;;;;1999.90;999.90;;;;;;;14.12;47.63;100892.06;4801013;29;97797;-76
2021/07/24 05:42:20;;;;;;;1999.90;999.90;;;;;;;14.15;47.57;100891.19;4801444;29;97439;-75
2021/07/24 05:44:48;;;;;;;1999.90;999.90;;;;;;;14.23;47.11;100894.81;4799849;29;97590;-76
2021/07/24 05:47:15;;;;;;;1999.90;999.90;;;;;;;14.21;47.51;100891.22;4797022;29;100496;-76
2021/07/24 05:49:45;;;;;;;1999.90;999.90;;;;;;;14.27;47.19;100885.94;4794813;29;97738;-76
2021/07/24 05:52:13;;;;;;;1999.90;999.90;;;;;;;14.37;47.19;100886.91;4796940;29;97486;-76
2021/07/24 05:54:41;;;;;;;1999.90;999.90;;;;;;;14.39;47.19;100877.97;4799202;29;98120;-75
2021/07/24 05:57:09;;;;;;;1999.90;999.90;;;;;;;14.46;47.17;100877.16;4781970;29;101095;-76
2021/07/24 05:59:38;;;;;;;1999.90;999.90;;;;;;;14.52;47.36;100870.91;4799710;29;98223;-75
2021/07/24 06:02:06;;;;;;;1999.90;999.90;;;;;;;14.60;47.13;100871.91;4789540;29;97579;-75
2021/07/24 06:04:34;;;;;;;1999.90;999.90;;;;;;;14.64;46.64;100877.31;4795823;29;97655;-75
2021/07/24 06:07:04;;;;;;;1999.90;999.90;;;;;;;14.71;46.85;100875.53;4800006;29;99747;-75
2021/07/24 06:09:32;;;;;;;1999.90;999.90;;;;;;;14.74;46.60;100879.13;4784232;29;100219;-75
2021/07/24 06:12:00;;;;;;;1999.90;999.90;;;;;;;14.76;46.51;100869.31;4783693;29;98675;-74
2021/07/24 06:14:27;;;;;;;1999.90;999.90;;;;;;;14.79;46.67;100865.78;4780550;29;97077;-75
2021/07/24 06:16:55;;;;;;;1999.90;999.90;;;;;;;14.81;46.67;100862.19;4797882;29;101279;-75
2021/07/24 06:19:23;;;;;;;1999.90;999.90;;;;;;;14.84;46.45;100864.00;4801814;29;97596;-75
2021/07/24 06:21:51;;;;;;;1999.90;999.90;;;;;;;14.89;46.33;100862.25;4806746;29;97025;-75
2021/07/24 06:24:20;;;;;;;1999.90;999.90;;;;;;;14.93;46.47;100858.69;4798345;29;97557;-74
2021/07/24 06:26:48;;;;;;;1999.90;999.90;;;;;;;14.98;46.58;100862.28;4796543;29;100253;-74
2021/07/24 06:29:16;;;;;;;1999.90;999.90;;;;;;;15.04;46.64;100867.69;4781330;29;99394;-75
2021/07/24 06:31:44;;;;;;;1999.90;999.90;;;;;;;15.10;46.24;100855.19;4803373;29;97031;-75
2021/07/24 06:34:12;;;;;;;1999.90;999.90;;;;;;;15.17;46.27;100853.44;4796490;29;98383;-75
2021/07/24 06:36:40;;;;;;;1999.90;999.90;;;;;;;15.23;46.41;100848.06;4795451;29;98216;-75
2021/07/24 06:39:08;;;;;;;1999.90;999.90;;;;;;;15.28;46.50;100840.97;4795471;29;97305;-75
2021/07/24 06:41:39;;;;;;;1999.90;999.90;;;;;;;15.37;46.13;100830.31;4796311;29;97707;-75
2021/07/24 06:44:07;;;;;;;1999.90;999.90;;;;;;;15.43;46.20;100835.66;4815758;29;99454;-76
2021/07/24 06:46:34;;;;;;;1999.90;999.90;;;;;;;15.48;46.06;100833.00;4790572;29;100667;-75
2021/07/24 06:49:02;;;;;;;1999.90;999.90;;;;;;;15.53;46.06;100826.75;4805916;29;97593;-76
2021/07/24 06:51:30;;;;;;;1999.90;999.90;;;;;;;15.60;45.57;100831.22;4791362;29;96990;-75
2021/07/24 06:53:58;;;;;;;1999.90;999.90;;;;;;;15.65;45.91;100816.03;4807200;29;96919;-75
2021/07/24 06:56:26;;;;;;;1999.90;999.90;;;;;;;15.71;45.41;100820.50;4807054;29;98973;-75
2021/07/24 06:58:55;;;;;;;1999.90;999.90;;;;;;;15.74;45.54;100810.66;4806706;29;98751;-77
2021/07/24 07:01:23;;;;;;;1999.90;999.90;;;;;;;15.79;45.62;100811.59;4806762;29;97838;-74
2021/07/24 07:03:51;;;;;;;1999.90;999.90;;;;;;;15.86;45.96;100804.41;4806751;29;97236;-74
2021/07/24 07:06:18;;;;;;;1999.90;999.90;;;;;;;15.93;45.85;100811.56;4812320;29;100564;-74
2021/07/24 07:08:46;;;;;;;1999.90;999.90;;;;;;;16.01;45.75;100805.31;4805933;29;99489;-75
2021/07/24 07:11:14;;;;;;;1999.90;999.90;;;;;;;16.05;45.59;100800.84;4807866;29;97542;-74
2021/07/24 07:13:41;;;;;;;1999.90;999.90;;;;;;;16.10;45.33;100799.94;4808025;29;96970;-75
2021/07/24 07:16:11;;;;;;;1999.90;999.90;;;;;;;16.16;45.63;100803.53;4805605;29;99500;-75
2021/07/24 07:18:38;;;;;;;1999.90;999.90;;;;;;;16.21;45.31;100805.31;4790380;29;100873;-74
2021/07/24 07:21:10;;;;;;;1999.90;999.90;;;;;;;16.28;45.49;100799.03;4804150;29;97809;-75
2021/07/24 07:23:38;;;;;;;1999.90;999.90;;;;;;;16.33;45.47;100794.53;4786261;29;97289;-74
2021/07/24 07:26:06;;;;;;;1999.90;999.90;;;;;;;16.39;45.40;100802.59;4810763;29;98182;-74
2021/07/24 07:28:34;;;;;;;1999.90;999.90;;;;;;;16.43;45.33;100803.47;4809145;29;100450;-75
2021/07/24 07:31:02;;;;;;;1999.90;999.90;;;;;;;16.51;45.22;100804.34;4806009;29;97964;-75
2021/07/24 07:33:31;;;;;;;1999.90;999.90;;;;;;;16.54;45.24;100796.28;4809171;29;97025;-75
2021/07/24 07:35:59;;;;;;;1999.90;999.90;;;;;;;16.62;45.13;100805.19;4808791;29;98985;-75
2021/07/24 07:38:27;;;;;;;1999.90;999.90;;;;;;;16.69;45.13;100796.25;4808148;29;98816;-75
2021/07/24 07:40:55;;;;;;;1999.90;999.90;;;;;;;16.71;45.08;100789.97;4809912;29;96751;-74
2021/07/24 07:43:23;;;;;;;1999.90;999.90;;;;;;;16.77;45.35;100791.75;4807824;29;97444;-74
2021/07/24 07:45:50;;;;;;;1999.90;999.90;;;;;;;16.80;45.54;100787.25;4805807;29;100934;-75
2021/07/24 07:48:18;;;;;;;1999.90;999.90;;;;;;;16.86;45.44;100789.03;4807637;29;99921;-74
2021/07/24 07:50:47;;;;;;;1999.90;999.90;;;;;;;16.89;45.02;100779.16;4797789;29;97810;-75
2021/07/24 07:53:15;;;;;;;1999.90;999.90;;;;;;;17.00;45.03;100784.47;4799351;29;97172;-75
2021/07/24 07:55:45;;;;;;;1999.90;999.90;;;;;;;17.08;44.71;100783.53;4806788;29;97336;-75
2021/07/24 07:58:14;;;;;;;1999.90;999.90;;;;;;;17.11;44.67;100774.53;4789371;29;99440;-73
2021/07/24 08:00:42;;;;;;;1999.90;999.90;;;;;;;17.13;45.09;100772.75;4802774;29;98201;-75
2021/07/24 08:03:10;;;;;;;1999.90;999.90;;;;;;;17.18;45.03;100770.03;4804974;29;98619;-75
2021/07/24 08:05:37;;;;;;;1999.90;999.90;;;;;;;17.23;44.82;100771.81;4805383;29;99690;-75
2021/07/24 08:08:07;;;;;;;1999.90;999.90;;;;;;;17.27;44.93;100764.59;4807941;29;98926;-75
2021/07/24 08:10:35;;;;;;;1999.90;999.90;;;;;;;17.32;44.86;100760.06;4787112;29;97413;-74
2021/07/24 08:13:11;;;;;;;1999.90;999.90;;;;;;;17.38;44.82;100754.69;4811282;29;97392;-75
2021/07/24 08:15:39;;;;;;;1999.90;999.90;;;;;;;17.43;44.55;100748.38;4811307;29;100393;-74
2021/07/24 08:18:07;;;;;;;1999.90;999.90;;;;;;;17.51;44.38;100746.50;4812602;29;98896;-75
2021/07/24 08:20:35;;;;;;;1999.90;999.90;;;;;;;17.56;44.40;100742.00;4806459;29;98036;-75
2021/07/24 08:23:02;;;;;;;1999.90;999.90;;;;;;;17.64;43.86;100756.28;4799306;29;97546;-75
2021/07/24 08:25:32;;;;;;;1999.90;999.90;;;;;;;17.70;43.58;100750.84;4809665;29;98710;-75
2021/07/24 08:28:00;;;;;;;1999.90;999.90;;;;;;;17.78;43.67;100751.66;4809135;29;97780;-75
2021/07/24 08:30:28;;;;;;;1999.90;999.90;;;;;;;17.87;43.32;100737.25;4804004;29;97220;-74
2021/07/24 08:32:57;;;;;;;1999.90;999.90;;;;;;;17.96;43.17;100740.75;4787748;29;97202;-74
2021/07/24 08:35:25;;;;;;;1999.90;999.90;;;;;;;18.02;43.03;100734.41;4806523;29;97747;-74
2021/07/24 08:37:52;;;;;;;1999.90;999.90;;;;;;;18.09;42.98;100741.53;4797855;29;98094;-73
2021/07/24 08:40:21;;;;;;;1999.90;999.90;;;;;;;18.15;42.91;100749.53;4807454;29;98006;-76
2021/07/24 08:42:50;;;;;;;1999.90;999.90;;;;;;;18.22;42.71;100742.31;4790867;29;98134;-75
2021/07/24 08:45:19;;;;;;;1999.90;999.90;;;;;;;18.28;42.46;100744.91;4790308;29;101120;-76
2021/07/24 08:47:47;;;;;;;1999.90;999.90;;;;;;;18.35;42.57;100741.25;4806979;29;97871;-76
2021/07/24 08:50:15;;;;;;;1999.90;999.90;;;;;;;18.45;42.06;100735.75;4824036;29;97016;-74
2021/07/24 08:52:43;;;;;;;1999.90;999.90;;;;;;;18.54;42.08;100737.44;4793662;29;97563;-75
2021/07/24 08:55:14;;;;;;;1999.90;999.90;;;;;;;18.60;41.50;100731.97;4806283;29;98362;-76
2021/07/24 08:57:42;;;;;;;1999.90;999.90;;;;;;;18.68;41.27;100733.69;4809279;29;99744;-75
2021/07/24 09:00:14;;;;;;;1999.90;999.90;;;;;;;18.77;41.41;100728.16;4807733;29;97116;-74
2021/07/24 09:02:43;;;;;;;1999.90;999.90;;;;;;;18.84;41.37;100729.00;4793032;29;97170;-75
2021/07/24 09:05:12;;;;;;;1999.90;999.90;;;;;;;18.92;40.98;100741.44;4809150;29;98409;-76
2021/07/24 09:07:41;;;;;;;1999.90;999.90;;;;;;;19.00;40.80;100738.66;4807644;29;98804;-75
2021/07/24 09:10:10;;;;;;;1999.90;999.90;;;;;;;19.09;40.73;100733.13;4809145;29;97032;-76
2021/07/24 09:12:40;;;;;;;1999.90;999.90;;;;;;;19.17;40.76;100736.56;4783506;29;98148;-76
2021/07/24 09:15:09;;;;;;;1999.90;999.90;;;;;;;19.25;40.61;100723.88;4808520;29;99701;-76
2021/07/24 09:17:39;;;;;;;1999.90;999.90;;;;;;;19.35;40.15;100727.38;4807777;29;100833;-76
2021/07/24 09:20:07;;;;;;;1999.90;999.90;;;;;;;19.42;40.06;100726.34;4790941;29;97668;-76
2021/07/24 09:22:36;;;;;;;1999.90;999.90;;;;;;;19.49;39.30;100730.72;4808478;29;97292;-76
2021/07/24 09:25:12;;;;;;;1999.90;999.90;;;;;;;19.56;39.49;100727.00;4808333;29;100432;-77
2021/07/24 09:27:41;;;;;;;1999.90;999.90;;;;;;;19.64;39.38;100728.69;4810524;29;97963;-75
2021/07/24 09:30:27;;;;;;;1999.90;999.90;;;;;;;19.73;39.34;100715.03;4810310;29;97726;-75
2021/07/24 09:33:03;;;;;;;1999.90;999.90;;;;;;;19.84;38.77;100725.63;4809210;29;98465;-77
2021/07/24 09:35:38;;;;;;;1999.90;999.90;;;;;;;19.94;39.05;100722.75;4809679;29;98435;-78
2021/07/24 09:38:07;;;;;;;1999.90;999.90;;;;;;;20.04;38.20;100718.09;4808443;29;97520;-77
2021/07/24 09:40:35;;;;;;;1999.90;999.90;;;;;;;20.13;38.26;100722.41;4810558;29;96080;-77
2021/07/24 09:43:04;;;;;;;1999.90;999.90;;;;;;;20.21;37.88;100715.06;4812632;29;97271;-78
2021/07/24 09:45:32;;;;;;;1999.90;999.90;;;;;;;20.28;37.73;100703.22;4810634;29;99302;-77
2021/07/24 09:48:18;;;;;;;1999.90;999.90;;;;;;;20.34;37.97;100705.78;4792809;29;101088;-77
2021/07/24 09:50:48;;;;;;;1999.90;999.90;;;;;;;20.42;37.91;100698.41;4783845;29;97765;-75
2021/07/24 09:53:34;;;;;;;1999.90;999.90;;;;;;;20.49;37.82;100690.13;4793221;29;97199;-76
2021/07/24 09:56:03;;;;;;;1999.90;999.90;;;;;;;20.55;37.08;100692.75;4807473;29;97628;-75
2021/07/24 09:58:30;;;;;;;1999.90;999.90;;;;;;;20.62;37.19;100685.38;4813166;29;100513;-75
2021/07/24 10:01:02;;;;;;;1999.90;999.90;;;;;;;20.70;36.95;100686.13;4806303;29;97091;-75
2021/07/24 10:03:32;;;;;;;1999.90;999.90;;;;;;;20.77;36.55;100682.34;4808139;29;97140;-76
2021/07/24 10:06:01;;;;;;;1999.90;999.90;;;;;;;20.84;36.61;100681.28;4799560;29;101002;-72
2021/07/24 10:08:30;;;;;;;1999.90;999.90;;;;;;;20.90;36.75;100676.59;4809108;29;97617;-75
2021/07/24 10:10:58;;;;;;;1999.90;999.90;;;;;;;20.96;36.50;100670.16;4807684;29;97447;-74
2021/07/24 10:13:26;;;;;;;1999.90;999.90;;;;;;;21.01;36.26;100672.78;4805558;29;96995;-73
2021/07/24 10:15:54;;;;;;;1999.90;999.90;;;;;;;21.08;36.19;100664.50;4809479;29;97093;-75
2021/07/24 10:18:22;;;;;;;1999.90;999.90;;;;;;;21.13;35.79;100659.88;4810839;29;97723;-73
2021/07/24 10:20:51;;;;;;;1999.90;999.90;;;;;;;21.18;35.77;100660.66;4812803;29;97095;-74
2021/07/24 10:23:23;;;;;;;1999.90;999.90;;;;;;;21.23;35.66;100652.44;4809983;29;97673;-75
2021/07/24 10:26:01;;;;;;;1999.90;999.90;;;;;;;21.26;35.44;100653.25;4809996;29;98393;-74
2021/07/24 10:28:32;;;;;;;1999.90;999.90;;;;;;;21.31;35.55;100645.88;4808268;29;97682;-74
2021/07/24 10:31:08;;;;;;;1999.90;999.90;;;;;;;21.39;35.38;100643.88;4806977;29;97394;-75
2021/07/24 10:33:36;;;;;;;1999.90;999.90;;;;;;;21.45;35.11;100641.00;4808335;29;97182;-75
2021/07/24 10:36:13;;;;;;;1999.90;999.90;;;;;;;21.53;34.69;100649.81;4808745;29;97919;-75
2021/07/24 10:38:59;;;;;;;1999.90;999.90;;;;;;;21.63;34.55;100645.06;4809256;29;97396;-75
2021/07/24 10:41:48;;;;;;;1999.90;999.90;;;;;;;21.68;34.65;100641.31;4823029;29;97226;-75
2021/07/24 10:44:17;;;;;;;1999.90;999.90;;;;;;;21.77;34.33;100638.38;4824271;29;96935;-75
2021/07/24 10:47:15;;;;;;;1999.90;999.90;;;;;;;21.85;34.52;100633.63;4794579;29;100440;-74
2021/07/24 10:50:05;;;;;;;1999.90;999.90;;;;;;;21.96;34.39;100635.16;4815698;29;97702;-75
2021/07/24 10:53:11;;;;;;;1999.90;999.90;;;;;;;22.04;34.39;100627.69;4806202;29;97179;-75
2021/07/24 10:55:45;;;;;;;1999.90;999.90;;;;;;;22.11;34.35;100623.91;4807755;29;96963;-76
2021/07/24 10:58:14;;;;;;;1999.90;999.90;;;;;;;22.20;34.43;100615.50;4803998;29;99286;-74